Kalar Kahar Weather



Kalar Kahar's Current Weather

Temprature 18.174o clear sky

clear sky

Rain: 0 %

Min Temprature18.174o
Max Temprature18.174o
Humidity35
Wind Speed2.06 m/h
Sun Rise06:44:07
Sun Set18:01:25
Current Time: 23-Feb-2019 16:15:19
Lat/Lon: 32.78, 72.7




Kalar Kahar's Geo Location




Kalar Kahar's Weather Forecast

Time Overall Temp Min Temp Max Temp Humidity Wind Speed Rain
23-Feb-2019 (Sat)
17:00:00 clear sky 17.740 17.740 18.174 35 2.06 m/h 0 %
20:00:00 clear sky 7.580 7.580 7.909 65 1.52 m/h 0 %
23:00:00 clear sky 3.650 3.650 3.865 72 1.02 m/h 0 %
24-Feb-2019 (Sun)
02:00:00 clear sky 2.350 2.350 2.460 69 1.16 m/h 0 %
05:00:00 clear sky 1.567 1.567 1.567 69 1.01 m/h 0 %
08:00:00 clear sky 4.578 4.578 4.578 74 1.41 m/h 0 %
11:00:00 clear sky 16.624 16.624 16.624 48 2.26 m/h 0 %
14:00:00 clear sky 19.656 19.656 19.656 40 2.52 m/h 0 %
17:00:00 light rain 18.771 18.771 18.771 38 1.5 m/h 17 %
20:00:00 light rain 9.418 9.418 9.418 76 1.66 m/h 12 %
23:00:00 scattered clouds 6.061 6.061 6.061 83 1.01 m/h 0 %
25-Feb-2019 (Mon)
02:00:00 broken clouds 4.605 4.605 4.605 86 1.32 m/h 0 %
05:00:00 light rain 4.977 4.977 4.977 88 1.61 m/h 11 %
08:00:00 light rain 7.395 7.395 7.395 95 1.92 m/h 84 %
11:00:00 light rain 10.097 10.097 10.097 86 2.06 m/h 261 %
14:00:00 moderate rain 9.048 9.048 9.048 100 3.12 m/h 888 %
17:00:00 light rain 8.962 8.962 8.962 100 2.26 m/h 278 %
20:00:00 light rain 7.673 7.673 7.673 94 1.86 m/h 31 %
23:00:00 light rain 5.842 5.842 5.842 92 1.61 m/h 3 %
26-Feb-2019 (Tue)
02:00:00 light rain 7.076 7.076 7.076 97 1.66 m/h 13 %
05:00:00 light rain 7.097 7.097 7.097 98 1.61 m/h 16 %
08:00:00 light rain 7.807 7.807 7.807 98 2.17 m/h 20 %
11:00:00 light rain 10.117 10.117 10.117 100 2.77 m/h 15 %
14:00:00 light rain 11.646 11.646 11.646 100 2.71 m/h 8 %
17:00:00 light rain 11.789 11.789 11.789 96 2.06 m/h 12 %
20:00:00 light rain 8.536 8.536 8.536 92 1.77 m/h 74 %
23:00:00 light rain 6.348 6.348 6.348 89 0.72 m/h 3 %
27-Feb-2019 (Wed)
02:00:00 few clouds 4.931 4.931 4.931 81 1.66 m/h 0 %
05:00:00 clear sky 2.244 2.244 2.244 76 1.15 m/h 0 %
08:00:00 clear sky 4.615 4.615 4.615 77 0.87 m/h 0 %
11:00:00 clear sky 12.970 12.970 12.970 100 2.06 m/h 0 %
14:00:00 scattered clouds 14.111 14.111 14.111 91 2.55 m/h 0 %
17:00:00 light rain 13.073 13.073 13.073 72 3.46 m/h 24 %
20:00:00 light rain 8.667 8.667 8.667 85 3.22 m/h 14 %
23:00:00 scattered clouds 6.016 6.016 6.016 89 2.72 m/h 0 %
28-Feb-2019 (Thu)
02:00:00 broken clouds 3.866 3.866 3.866 88 1.31 m/h 0 %
05:00:00 scattered clouds 4.038 4.038 4.038 87 1.31 m/h 0 %
08:00:00 overcast clouds 5.640 5.640 5.640 88 1.61 m/h 0 %
11:00:00 light rain 10.622 10.622 10.622 74 2.31 m/h 4 %
14:00:00 broken clouds 13.529 13.529 13.529 72 2.42 m/h 0 %

Famous Cities (60)